Impacts TAF Board INFO
FOR SITUATIONAL AWARENESS. NOT TO BE USED FOR FLIGHT PLANNING PURPOSES.
IDs:

KFLL - Ft Lauderdale-Hollyw, FL, US

Issued at 1126 UTC 24 Jul 2017
Updated at 1438 UTC 24 Jul 2017
Potential Impact None Slight Moderate High
Time1353Z 24/15Z 24/16Z 24/17Z 24/18Z 24/19Z 24/20Z 24/21Z 24/22Z 24/23Z 25/00Z 25/01Z 25/02Z 25/03Z>>
Type OBS PRVL PRVL PRVL PRVL PRVL PRVL PRVL PRVL PRVL PRVL PRVL PRVL PRVL
VIS 10 >6 >6 >6 >6 >6 >6 >6 >6 >6 >6 >6 >6 >6
CIG 250 -- -- -- 250 250 250 250 250 250 250 250 250 250
Cover BKN SCT SCT SCT BKN BKN BKN BKN BKN BKN BKN BKN BKN BKN
FltCat VFR VFR VFR VFR VFR VFR VFR VFR VFR VFR VFR VFR VFR VFR
WX -- -- -- -- VCSH VCSH VCSH VCSH VCSH VCSH -- -- -- --
WDir VRB 130 130 130 140 140 140 140 140 140 VRB VRB VRB VRB
WSpd 0 9 9 9 10 10 10 10 10 10 5 5 5 5
WGst -- -- -- -- -- -- -- -- -- -- -- -- -- --

Raw TAF
KFLL 241126Z 2412/2512 VRB03KT P6SM VCSH FEW025 SCT250
  FM241500 13009KT P6SM SCT030 SCT250
  FM241800 14010KT P6SM VCSH SCT025 SCT050 BKN250
  FM250000 VRB05KT P6SM FEW030 SCT100 BKN250


Raw METAR
KFLL 241353Z 00000KT 10SM FEW027 FEW150 BKN250 30/24 A3009 RMK SLP188 T03000244 $
KFLL 241253Z 00000KT 10SM FEW027 FEW075 SCT180 BKN250 29/24 A3008 RMK SLP185 T02940239 $
KFLL 241153Z 12007KT 10SM FEW027 FEW075 SCT250 27/23 A3006 RMK RAB39E48 SLP179 P0000 60000 T02720233 10289 20261 53018

METAR Board
Radar Display
Forecast Discussion

FOR SITUATIONAL AWARENESS. NOT TO BE USED FOR FLIGHT PLANNING PURPOSES.